Time,TemperatureF,DewpointF,PressureIn,WindDirection,WindDirectionDegrees,WindSpeedMPH,WindSpeedGustMPH,Humidity,HourlyPrecipIn,Conditions,Clouds,dailyrainin,SolarRadiationWatts/m^2,SoftwareType,DateUTC
2013-08-19 00:02:00,68.9,66.5,30.20,ENE,66,3.0,3.0,92,0.00,,,0.00,0,Wunderground v.1.15,2013-08-19 04:02:00,
2013-08-19 00:04:00,68.9,66.5,30.20,NNE,31,2.0,5.0,92,0.00,,,0.00,0,Wunderground v.1.15,2013-08-19 04:04:00,
2013-08-19 00:06:00,68.9,66.5,30.20,NE,35,2.0,5.0,92,0.00,,,0.00,0,Wunderground v.1.15,2013-08-19 04:06:00,
2013-08-19 00:08:00,68.9,66.5,30.20,NE,35,3.0,5.0,92,0.00,,,0.00,0,Wunderground v.1.15,2013-08-19 04:08:00,
2013-08-19 00:14:00,68.8,66.7,30.20,NE,49,4.0,4.0,93,0.00,,,0.00,0,Wunderground v.1.15,2013-08-19 04:14:00,
2013-08-19 00:16:00,68.8,66.7,30.20,NE,38,4.0,5.0,93,0.00,,,0.00,0,Wunderground v.1.15,2013-08-19 04:16:00,
2013-08-19 00:22:00,68.8,66.7,30.20,NNE,30,4.0,4.0,93,0.00,,,0.00,0,Wunderground v.1.15,2013-08-19 04:22:00,
2013-08-19 00:28:00,68.8,66.7,30.20,East,82,2.0,4.0,93,0.00,,,0.00,0,Wunderground v.1.15,2013-08-19 04:28:00,
2013-08-19 00:34:00,68.8,66.7,30.19,NE,40,3.0,4.0,93,0.00,,,0.00,0,Wunderground v.1.15,2013-08-19 04:34:00,
2013-08-19 00:40:00,68.8,67.0,30.19,NNE,28,4.0,5.0,94,0.00,,,0.00,0,Wunderground v.1.15,2013-08-19 04:40:00,
2013-08-19 00:46:00,68.6,66.8,30.19,NNE,25,4.0,5.0,94,0.00,,,0.00,0,Wunderground v.1.15,2013-08-19 04:46:00,
2013-08-19 00:52:00,68.6,66.8,30.19,NNE,25,3.0,5.0,94,0.00,,,0.00,0,Wunderground v.1.15,2013-08-19 04:52:00,
2013-08-19 00:58:00,68.6,66.8,30.19,NE,51,3.0,6.0,94,0.00,,,0.00,0,Wunderground v.1.15,2013-08-19 04:58:00,
2013-08-19 01:04:00,68.4,66.6,30.19,NE,51,2.0,3.0,94,0.00,,,0.00,0,Wunderground v.1.15,2013-08-19 05:04:00,
2013-08-19 01:11:00,68.4,66.6,30.19,NE,51,1.0,1.0,94,0.00,,,0.00,0,Wunderground v.1.15,2013-08-19 05:11:00,
2013-08-19 01:16:00,68.4,66.6,30.18,NE,51,1.0,2.0,94,0.00,,,0.00,0,Wunderground v.1.15,2013-08-19 05:16:00,
2013-08-19 01:22:00,68.3,66.5,30.18,NE,51,2.0,2.0,94,0.00,,,0.00,0,Wunderground v.1.15,2013-08-19 05:22:00,
2013-08-19 01:28:00,68.3,66.5,30.18,NE,51,2.0,2.0,94,0.00,,,0.00,0,Wunderground v.1.15,2013-08-19 05:28:00,
2013-08-19 01:34:00,68.1,66.6,30.17,NE,51,2.0,2.0,95,0.00,,,0.00,0,Wunderground v.1.15,2013-08-19 05:34:00,
2013-08-19 01:40:00,68.1,66.6,30.17,NE,51,2.0,2.0,95,0.00,,,0.00,0,Wunderground v.1.15,2013-08-19 05:40:00,
2013-08-19 01:46:00,68.1,66.6,30.17,NE,51,2.0,2.0,95,0.00,,,0.00,0,Wunderground v.1.15,2013-08-19 05:46:00,
2013-08-19 01:52:00,67.9,66.4,30.17,NE,51,2.0,2.0,95,0.00,,,0.00,0,Wunderground v.1.15,2013-08-19 05:52:00,
2013-08-19 01:58:00,67.9,66.4,30.17,NE,51,2.0,2.0,95,0.00,,,0.00,0,Wunderground v.1.15,2013-08-19 05:58:00,
2013-08-19 02:04:00,67.9,66.4,30.16,NE,51,2.0,2.0,95,0.00,,,0.00,0,Wunderground v.1.15,2013-08-19 06:04:00,
2013-08-19 02:10:00,67.8,66.3,30.16,NE,51,2.0,2.0,95,0.00,,,0.00,0,Wunderground v.1.15,2013-08-19 06:10:00,
2013-08-19 02:16:00,67.8,66.3,30.16,NE,51,1.0,2.0,95,0.00,,,0.00,0,Wunderground v.1.15,2013-08-19 06:16:00,
2013-08-19 02:22:00,67.8,66.3,30.16,NE,51,1.0,1.0,95,0.00,,,0.00,0,Wunderground v.1.15,2013-08-19 06:22:00,
2013-08-19 02:28:00,67.8,66.3,30.16,NE,51,1.0,2.0,95,0.00,,,0.00,0,Wunderground v.1.15,2013-08-19 06:28:00,
2013-08-19 02:34:00,67.8,66.3,30.16,NE,51,1.0,2.0,95,0.00,,,0.00,0,Wunderground v.1.15,2013-08-19 06:34:00,
2013-08-19 02:40:00,67.8,66.3,30.16,NE,51,1.0,2.0,95,0.00,,,0.00,0,Wunderground v.1.15,2013-08-19 06:40:00,
2013-08-19 02:46:00,67.8,66.3,30.16,NE,51,1.0,2.0,95,0.00,,,0.00,0,Wunderground v.1.15,2013-08-19 06:46:00,
2013-08-19 02:52:00,67.8,66.6,30.16,SE,141,1.0,2.0,96,0.00,,,0.00,0,Wunderground v.1.15,2013-08-19 06:52:00,
2013-08-19 02:58:00,67.8,66.6,30.16,SE,141,1.0,2.0,96,0.00,,,0.00,0,Wunderground v.1.15,2013-08-19 06:58:00,
2013-08-19 03:04:00,67.8,66.6,30.16,SE,141,1.0,2.0,96,0.00,,,0.00,0,Wunderground v.1.15,2013-08-19 07:04:00,
2013-08-19 03:10:00,67.8,66.6,30.16,SE,141,1.0,2.0,96,0.00,,,0.00,0,Wunderground v.1.15,2013-08-19 07:10:00,
2013-08-19 03:16:00,67.8,66.6,30.16,SE,141,1.0,2.0,96,0.00,,,0.00,0,Wunderground v.1.15,2013-08-19 07:16:00,
2013-08-19 03:22:00,67.8,66.6,30.16,SE,141,1.0,2.0,96,0.00,,,0.00,0,Wunderground v.1.15,2013-08-19 07:22:00,
2013-08-19 03:28:00,67.8,66.6,30.16,SE,141,1.0,2.0,96,0.00,,,0.00,0,Wunderground v.1.15,2013-08-19 07:28:00,
2013-08-19 03:34:00,67.6,66.4,30.15,SE,141,1.0,2.0,96,0.00,,,0.00,0,Wunderground v.1.15,2013-08-19 07:34:00,
2013-08-19 03:40:00,67.6,66.4,30.15,SE,141,1.0,1.0,96,0.00,,,0.00,0,Wunderground v.1.15,2013-08-19 07:40:00,
2013-08-19 03:46:00,67.8,66.6,30.15,SE,138,1.0,1.0,96,0.00,,,0.00,0,Wunderground v.1.15,2013-08-19 07:46:00,
2013-08-19 03:52:00,67.8,66.6,30.15,ENE,62,1.0,1.0,96,0.00,,,0.00,0,Wunderground v.1.15,2013-08-19 07:52:00,
2013-08-19 03:58:00,67.8,66.6,30.15,ENE,62,1.0,2.0,96,0.00,,,0.00,0,Wunderground v.1.15,2013-08-19 07:58:00,
2013-08-19 04:04:00,67.8,66.6,30.16,ENE,62,1.0,1.0,96,0.00,,,0.00,0,Wunderground v.1.15,2013-08-19 08:04:00,
2013-08-19 04:10:00,67.8,66.6,30.16,ENE,62,1.0,1.0,96,0.00,,,0.01,0,Wunderground v.1.15,2013-08-19 08:10:00,
2013-08-19 04:16:00,67.8,66.6,30.15,ENE,62,1.0,2.0,96,0.00,,,0.01,0,Wunderground v.1.15,2013-08-19 08:16:00,
2013-08-19 04:22:00,67.8,66.6,30.15,ENE,62,0.0,0.0,96,0.00,,,0.01,0,Wunderground v.1.15,2013-08-19 08:22:00,
2013-08-19 04:28:00,67.6,66.4,30.15,ENE,62,0.0,0.0,96,0.00,,,0.01,0,Wunderground v.1.15,2013-08-19 08:28:00,
2013-08-19 04:34:00,67.6,66.4,30.15,ENE,62,0.0,2.0,96,0.00,,,0.01,0,Wunderground v.1.15,2013-08-19 08:34:00,
2013-08-19 04:40:00,67.6,66.4,30.15,ENE,62,1.0,1.0,96,0.00,,,0.01,0,Wunderground v.1.15,2013-08-19 08:40:00,
2013-08-19 04:46:00,67.6,66.7,30.15,ENE,62,0.0,2.0,97,0.00,,,0.01,0,Wunderground v.1.15,2013-08-19 08:46:00,
2013-08-19 04:52:00,67.6,66.7,30.15,ENE,62,0.0,0.0,97,0.00,,,0.01,0,Wunderground v.1.15,2013-08-19 08:52:00,
2013-08-19 04:58:00,67.6,66.7,30.15,ENE,62,0.0,0.0,97,0.00,,,0.01,0,Wunderground v.1.15,2013-08-19 08:58:00,
2013-08-19 05:04:00,67.6,66.7,30.15,ENE,62,0.0,2.0,97,0.00,,,0.01,0,Wunderground v.1.15,2013-08-19 09:04:00,
2013-08-19 05:10:00,67.4,66.5,30.15,ENE,62,0.0,0.0,97,0.00,,,0.01,0,Wunderground v.1.15,2013-08-19 09:10:00,
2013-08-19 05:16:00,67.6,66.7,30.16,ENE,62,0.0,0.0,97,0.00,,,0.02,0,Wunderground v.1.15,2013-08-19 09:16:00,
2013-08-19 05:22:00,67.6,66.7,30.16,ENE,62,0.0,0.0,97,0.00,,,0.02,0,Wunderground v.1.15,2013-08-19 09:22:00,
2013-08-19 05:28:00,67.6,66.7,30.16,ENE,62,0.0,0.0,97,0.06,,,0.03,0,Wunderground v.1.15,2013-08-19 09:28:00,
2013-08-19 05:34:00,67.6,66.7,30.16,ENE,62,0.0,0.0,97,0.38,,,0.06,0,Wunderground v.1.15,2013-08-19 09:34:00,
2013-08-19 05:40:00,67.6,66.7,30.16,ENE,62,0.0,0.0,97,0.08,,,0.07,0,Wunderground v.1.15,2013-08-19 09:40:00,
2013-08-19 05:46:00,67.6,66.7,30.16,ENE,62,0.0,0.0,97,0.73,,,0.13,0,Wunderground v.1.15,2013-08-19 09:46:00,
2013-08-19 05:52:00,67.4,66.5,30.16,ENE,62,0.0,0.0,97,0.78,,,0.16,0,Wunderground v.1.15,2013-08-19 09:52:00,
2013-08-19 05:58:00,67.4,66.5,30.16,ENE,58,0.0,2.0,97,0.26,,,0.20,0,Wunderground v.1.15,2013-08-19 09:58:00,
2013-08-19 06:04:00,67.4,66.5,30.17,ENE,58,1.0,2.0,97,1.52,,,0.26,0,Wunderground v.1.15,2013-08-19 10:04:00,
2013-08-19 06:10:00,67.4,66.8,30.17,ENE,58,1.0,2.0,98,0.17,,,0.35,0,Wunderground v.1.15,2013-08-19 10:10:00,
2013-08-19 06:16:00,67.4,66.8,30.17,ENE,58,0.0,1.0,98,0.13,,,0.36,0,Wunderground v.1.15,2013-08-19 10:16:00,
2013-08-19 06:22:00,67.4,66.8,30.17,ENE,58,0.0,2.0,98,0.09,,,0.37,0,Wunderground v.1.15,2013-08-19 10:22:00,
2013-08-19 06:28:00,67.4,66.8,30.17,ENE,58,1.0,2.0,98,0.11,,,0.38,0,Wunderground v.1.15,2013-08-19 10:28:00,
2013-08-19 06:34:00,67.3,66.7,30.17,ENE,58,1.0,2.0,98,0.07,,,0.39,0,Wunderground v.1.15,2013-08-19 10:34:00,
2013-08-19 06:40:00,67.4,66.8,30.17,NE,56,1.0,3.0,98,0.07,,,0.39,0,Wunderground v.1.15,2013-08-19 10:40:00,
2013-08-19 06:46:00,67.3,66.7,30.17,North,0,2.0,3.0,98,0.04,,,0.39,0,Wunderground v.1.15,2013-08-19 10:46:00,
2013-08-19 06:52:00,67.3,66.7,30.17,NNE,32,2.0,2.0,98,0.04,,,0.40,0,Wunderground v.1.15,2013-08-19 10:52:00,
2013-08-19 06:58:00,67.3,66.7,30.17,NE,56,3.0,5.0,98,0.04,,,0.40,5,Wunderground v.1.15,2013-08-19 10:58:00,
2013-08-19 07:04:00,67.3,66.7,30.16,NNE,32,4.0,5.0,98,0.04,,,0.40,5,Wunderground v.1.15,2013-08-19 11:04:00,
2013-08-19 07:10:00,67.1,66.8,30.16,NNE,30,3.0,3.0,99,0.00,,,0.40,7,Wunderground v.1.15,2013-08-19 11:10:00,
2013-08-19 07:16:00,67.1,66.8,30.16,NNE,30,3.0,5.0,99,0.00,,,0.40,7,Wunderground v.1.15,2013-08-19 11:16:00,
2013-08-19 07:22:00,67.1,66.8,30.16,ENE,64,3.0,3.0,99,0.00,,,0.40,7,Wunderground v.1.15,2013-08-19 11:22:00,
2013-08-19 07:28:00,67.1,66.8,30.16,ENE,71,2.0,3.0,99,0.00,,,0.40,12,Wunderground v.1.15,2013-08-19 11:28:00,
2013-08-19 07:34:00,67.1,66.8,30.15,ENE,71,2.0,2.0,99,0.00,,,0.40,18,Wunderground v.1.15,2013-08-19 11:34:00,
2013-08-19 07:40:00,67.1,66.8,30.15,ENE,71,1.0,2.0,99,0.00,,,0.40,19,Wunderground v.1.15,2013-08-19 11:40:00,
2013-08-19 07:46:00,67.1,66.8,30.15,ENE,71,1.0,3.0,99,0.00,,,0.40,26,Wunderground v.1.15,2013-08-19 11:46:00,
2013-08-19 07:52:00,67.1,66.8,30.15,ENE,69,2.0,3.0,99,0.00,,,0.40,25,Wunderground v.1.15,2013-08-19 11:52:00,
2013-08-19 07:58:00,67.3,67.0,30.15,ENE,69,2.0,3.0,99,0.00,,,0.40,21,Wunderground v.1.15,2013-08-19 11:58:00,
2013-08-19 08:04:00,67.3,67.0,30.15,ENE,69,1.0,2.0,99,0.00,,,0.40,26,Wunderground v.1.15,2013-08-19 12:04:00,
2013-08-19 08:10:00,67.3,67.0,30.15,ENE,71,1.0,1.0,99,0.00,,,0.40,30,Wunderground v.1.15,2013-08-19 12:10:00,
2013-08-19 08:16:00,67.4,67.1,30.15,ENE,71,1.0,1.0,99,0.00,,,0.40,26,Wunderground v.1.15,2013-08-19 12:16:00,
2013-08-19 08:22:00,67.4,67.1,30.15,ENE,71,0.0,0.0,99,0.00,,,0.40,32,Wunderground v.1.15,2013-08-19 12:22:00,
2013-08-19 08:28:00,67.6,67.3,30.15,ENE,69,0.0,0.0,99,0.00,,,0.40,62,Wunderground v.1.15,2013-08-19 12:28:00,
2013-08-19 08:34:00,67.6,67.3,30.16,ENE,69,0.0,0.0,99,0.00,,,0.40,86,Wunderground v.1.15,2013-08-19 12:34:00,
2013-08-19 08:40:00,67.9,67.9,30.16,ENE,69,0.0,0.0,100,0.00,,,0.40,97,Wunderground v.1.15,2013-08-19 12:40:00,
2013-08-19 08:46:00,68.1,67.8,30.16,ENE,71,0.0,2.0,99,0.00,,,0.40,102,Wunderground v.1.15,2013-08-19 12:46:00,
2013-08-19 08:52:00,68.1,67.8,30.16,ENE,71,1.0,1.0,99,0.00,,,0.40,90,Wunderground v.1.15,2013-08-19 12:52:00,
2013-08-19 08:58:00,68.1,67.8,30.16,ENE,69,1.0,2.0,99,0.00,,,0.40,69,Wunderground v.1.15,2013-08-19 12:58:00,
2013-08-19 09:04:00,68.3,68.0,30.16,ENE,71,1.0,2.0,99,0.00,,,0.40,58,Wunderground v.1.15,2013-08-19 13:04:00,
2013-08-19 09:10:00,68.1,67.8,30.16,ENE,69,1.0,1.0,99,0.00,,,0.40,60,Wunderground v.1.15,2013-08-19 13:10:00,
2013-08-19 09:16:00,68.1,67.8,30.15,ENE,71,1.0,2.0,99,0.00,,,0.40,58,Wunderground v.1.15,2013-08-19 13:16:00,
2013-08-19 09:22:00,68.1,67.8,30.15,ENE,71,1.0,2.0,99,0.00,,,0.40,56,Wunderground v.1.15,2013-08-19 13:22:00,
2013-08-19 09:28:00,67.9,67.6,30.15,ENE,71,1.0,3.0,99,0.00,,,0.40,58,Wunderground v.1.15,2013-08-19 13:28:00,
2013-08-19 09:34:00,67.9,67.6,30.16,ENE,71,1.0,1.0,99,0.00,,,0.41,77,Wunderground v.1.15,2013-08-19 13:34:00,
2013-08-19 09:40:00,68.1,67.8,30.16,ENE,71,0.0,0.0,99,0.00,,,0.41,93,Wunderground v.1.15,2013-08-19 13:40:00,
2013-08-19 09:46:00,68.1,68.1,30.17,ENE,71,0.0,2.0,100,0.00,,,0.41,100,Wunderground v.1.15,2013-08-19 13:46:00,
2013-08-19 09:52:00,68.3,68.3,30.17,ENE,71,0.0,2.0,100,0.04,,,0.42,83,Wunderground v.1.15,2013-08-19 13:52:00,
2013-08-19 09:58:00,68.6,68.6,30.17,ENE,71,1.0,2.0,100,0.04,,,0.42,102,Wunderground v.1.15,2013-08-19 13:58:00,
2013-08-19 10:04:00,68.6,68.3,30.17,ENE,71,1.0,2.0,99,0.00,,,0.42,111,Wunderground v.1.15,2013-08-19 14:04:00,
2013-08-19 10:11:00,68.6,68.3,30.17,ENE,71,1.0,1.0,99,0.00,,,0.42,123,Wunderground v.1.15,2013-08-19 14:11:00,
2013-08-19 10:16:00,68.9,68.9,30.16,ENE,71,1.0,5.0,100,0.00,,,0.42,102,Wunderground v.1.15,2013-08-19 14:16:00,
2013-08-19 10:22:00,68.9,68.9,30.16,South,169,2.0,3.0,100,0.00,,,0.42,107,Wunderground v.1.15,2013-08-19 14:22:00,
2013-08-19 10:28:00,69.1,68.8,30.16,SE,130,1.0,3.0,99,0.00,,,0.42,132,Wunderground v.1.15,2013-08-19 14:28:00,
2013-08-19 10:34:00,69.1,68.8,30.16,SE,130,1.0,2.0,99,0.00,,,0.42,107,Wunderground v.1.15,2013-08-19 14:34:00,
2013-08-19 10:40:00,69.1,68.8,30.16,SE,130,1.0,2.0,99,0.00,,,0.42,76,Wunderground v.1.15,2013-08-19 14:40:00,
2013-08-19 10:46:00,69.1,68.8,30.17,SE,130,1.0,2.0,99,0.00,,,0.42,109,Wunderground v.1.15,2013-08-19 14:46:00,
2013-08-19 10:52:00,69.1,68.8,30.17,SE,130,1.0,3.0,99,0.00,,,0.42,107,Wunderground v.1.15,2013-08-19 14:52:00,
2013-08-19 10:58:00,69.1,68.8,30.17,SE,130,2.0,3.0,99,0.00,,,0.42,102,Wunderground v.1.15,2013-08-19 14:58:00,
2013-08-19 11:04:00,69.4,69.1,30.16,SE,131,1.0,2.0,99,0.00,,,0.42,76,Wunderground v.1.15,2013-08-19 15:04:00,
2013-08-19 11:10:00,69.4,69.1,30.16,SE,131,1.0,1.0,99,0.00,,,0.42,69,Wunderground v.1.15,2013-08-19 15:10:00,
2013-08-19 11:16:00,69.4,69.1,30.18,SE,131,0.0,2.0,99,0.00,,,0.43,97,Wunderground v.1.15,2013-08-19 15:16:00,
2013-08-19 11:22:00,69.6,69.6,30.18,SE,131,1.0,1.0,100,0.00,,,0.43,93,Wunderground v.1.15,2013-08-19 15:22:00,
2013-08-19 11:28:00,69.6,69.3,30.18,SSW,200,2.0,5.0,99,0.00,,,0.43,121,Wunderground v.1.15,2013-08-19 15:28:00,
2013-08-19 11:34:00,69.8,69.5,30.17,South,191,4.0,4.0,99,0.00,,,0.43,123,Wunderground v.1.15,2013-08-19 15:34:00,
2013-08-19 11:40:00,69.8,69.5,30.17,SSW,206,3.0,3.0,99,0.00,,,0.43,113,Wunderground v.1.15,2013-08-19 15:40:00,
2013-08-19 11:46:00,69.6,69.3,30.17,SE,140,3.0,6.0,99,0.00,,,0.43,88,Wunderground v.1.15,2013-08-19 15:46:00,
2013-08-19 11:52:00,69.6,69.3,30.17,East,79,2.0,2.0,99,0.00,,,0.43,83,Wunderground v.1.15,2013-08-19 15:52:00,
2013-08-19 11:58:00,69.8,69.5,30.17,East,79,1.0,2.0,99,0.00,,,0.43,137,Wunderground v.1.15,2013-08-19 15:58:00,
2013-08-19 12:04:00,69.9,69.6,30.18,East,79,1.0,1.0,99,0.00,,,0.43,86,Wunderground v.1.15,2013-08-19 16:04:00,
2013-08-19 12:10:00,69.8,69.5,30.18,East,79,1.0,1.0,99,0.00,,,0.43,88,Wunderground v.1.15,2013-08-19 16:10:00,
2013-08-19 12:16:00,69.9,69.6,30.17,East,79,0.0,1.0,99,0.00,,,0.43,83,Wunderground v.1.15,2013-08-19 16:16:00,
2013-08-19 12:22:00,69.9,69.6,30.17,East,79,0.0,0.0,99,0.00,,,0.43,90,Wunderground v.1.15,2013-08-19 16:22:00,
2013-08-19 12:28:00,70.3,70.0,30.17,SSE,164,0.0,3.0,99,0.00,,,0.43,113,Wunderground v.1.15,2013-08-19 16:28:00,
2013-08-19 12:34:00,70.3,70.0,30.17,South,176,2.0,3.0,99,0.00,,,0.43,132,Wunderground v.1.15,2013-08-19 16:34:00,
2013-08-19 12:40:00,70.4,70.1,30.17,South,178,3.0,5.0,99,0.00,,,0.44,172,Wunderground v.1.15,2013-08-19 16:40:00,
2013-08-19 12:46:00,70.6,70.3,30.16,South,181,4.0,7.0,99,0.07,,,0.45,160,Wunderground v.1.15,2013-08-19 16:46:00,
2013-08-19 12:52:00,70.4,70.1,30.16,South,169,5.0,7.0,99,0.14,,,0.47,143,Wunderground v.1.15,2013-08-19 16:52:00,
2013-08-19 12:58:00,70.4,70.1,30.16,SSW,199,7.0,7.0,99,0.06,,,0.47,144,Wunderground v.1.15,2013-08-19 16:58:00,
2013-08-19 13:04:00,70.6,70.3,30.14,SSW,209,8.0,8.0,99,0.04,,,0.47,185,Wunderground v.1.15,2013-08-19 17:04:00,
2013-08-19 13:10:00,70.8,70.5,30.14,NNW,342,5.0,8.0,99,0.00,,,0.48,72,Wunderground v.1.15,2013-08-19 17:10:00,
2013-08-19 13:16:00,70.8,70.5,30.15,North,359,5.0,7.0,99,0.00,,,0.48,282,Wunderground v.1.15,2013-08-19 17:16:00,
2013-08-19 13:22:00,71.3,71.3,30.15,North,4,4.0,5.0,100,0.00,,,0.48,185,Wunderground v.1.15,2013-08-19 17:22:00,
2013-08-19 13:28:00,71.5,71.2,30.15,WNW,294,4.0,5.0,99,0.00,,,0.48,220,Wunderground v.1.15,2013-08-19 17:28:00,
2013-08-19 13:34:00,71.6,71.3,30.15,North,359,3.0,4.0,99,0.00,,,0.48,238,Wunderground v.1.15,2013-08-19 17:34:00,
2013-08-19 13:40:00,72.0,71.7,30.15,North,8,2.0,4.0,99,0.00,,,0.48,294,Wunderground v.1.15,2013-08-19 17:40:00,
2013-08-19 13:46:00,72.1,71.5,30.15,North,8,1.0,2.0,98,0.00,,,0.48,271,Wunderground v.1.15,2013-08-19 17:46:00,
2013-08-19 13:52:00,72.0,71.1,30.15,NW,325,1.0,1.0,97,0.00,,,0.48,255,Wunderground v.1.15,2013-08-19 17:52:00,
2013-08-19 13:58:00,72.7,71.8,30.15,NNW,346,1.0,2.0,97,0.00,,,0.48,236,Wunderground v.1.15,2013-08-19 17:58:00,
2013-08-19 14:04:00,72.8,71.6,30.15,NNW,346,1.0,2.0,96,0.00,,,0.48,199,Wunderground v.1.15,2013-08-19 18:04:00,
2013-08-19 14:10:00,73.2,72.0,30.15,NNW,346,1.0,1.0,96,0.00,,,0.48,167,Wunderground v.1.15,2013-08-19 18:10:00,
2013-08-19 14:16:00,73.3,72.1,30.15,NNW,346,0.0,2.0,96,0.00,,,0.48,174,Wunderground v.1.15,2013-08-19 18:16:00,
2013-08-19 14:22:00,73.0,71.5,30.15,West,265,1.0,1.0,95,0.00,,,0.48,222,Wunderground v.1.15,2013-08-19 18:22:00,
2013-08-19 14:28:00,73.3,71.5,30.15,West,267,0.0,1.0,94,0.00,,,0.48,195,Wunderground v.1.15,2013-08-19 18:28:00,
2013-08-19 14:34:00,73.2,71.1,30.15,West,267,0.0,2.0,93,0.00,,,0.48,169,Wunderground v.1.15,2013-08-19 18:34:00,
2013-08-19 14:40:00,73.3,71.2,30.15,West,267,0.0,0.0,93,0.00,,,0.48,132,Wunderground v.1.15,2013-08-19 18:40:00,
2013-08-19 14:46:00,73.7,72.2,30.15,West,267,0.0,0.0,95,0.00,,,0.48,297,Wunderground v.1.15,2013-08-19 18:46:00,
2013-08-19 14:52:00,73.7,71.5,30.15,West,267,0.0,1.0,93,0.00,,,0.48,194,Wunderground v.1.15,2013-08-19 18:52:00,
2013-08-19 14:58:00,73.9,72.1,30.15,West,267,0.0,1.0,94,0.00,,,0.48,171,Wunderground v.1.15,2013-08-19 18:58:00,
2013-08-19 15:04:00,74.2,72.4,30.15,West,267,0.0,2.0,94,0.00,,,0.48,185,Wunderground v.1.15,2013-08-19 19:04:00,
2013-08-19 15:10:00,74.2,72.0,30.15,West,267,1.0,1.0,93,0.00,,,0.48,187,Wunderground v.1.15,2013-08-19 19:10:00,
2013-08-19 15:16:00,73.9,71.1,30.14,West,267,1.0,1.0,91,0.00,,,0.48,246,Wunderground v.1.15,2013-08-19 19:16:00,
2013-08-19 15:22:00,74.7,72.5,30.14,West,265,1.0,2.0,93,0.00,,,0.48,216,Wunderground v.1.15,2013-08-19 19:22:00,
2013-08-19 15:28:00,74.4,71.6,30.14,South,169,2.0,7.0,91,0.00,,,0.48,197,Wunderground v.1.15,2013-08-19 19:28:00,
2013-08-19 15:34:00,74.2,71.7,30.12,SSW,200,3.0,3.0,92,0.00,,,0.48,86,Wunderground v.1.15,2013-08-19 19:34:00,
2013-08-19 15:40:00,74.2,71.7,30.12,SSW,200,1.0,1.0,92,0.00,,,0.48,201,Wunderground v.1.15,2013-08-19 19:40:00,
2013-08-19 15:46:00,74.4,71.9,30.12,SSW,200,1.0,2.0,92,0.00,,,0.48,208,Wunderground v.1.15,2013-08-19 19:46:00,
2013-08-19 15:52:00,74.4,71.6,30.12,WSW,239,2.0,2.0,91,0.00,,,0.48,192,Wunderground v.1.15,2013-08-19 19:52:00,
2013-08-19 15:58:00,74.2,71.4,30.12,WSW,239,2.0,3.0,91,0.00,,,0.48,171,Wunderground v.1.15,2013-08-19 19:58:00,
2013-08-19 16:04:00,74.0,71.2,30.12,WSW,237,1.0,2.0,91,0.00,,,0.48,185,Wunderground v.1.15,2013-08-19 20:04:00,
2013-08-19 16:10:00,74.2,71.1,30.12,WSW,237,0.0,1.0,90,0.00,,,0.48,209,Wunderground v.1.15,2013-08-19 20:10:00,
2013-08-19 16:16:00,74.4,70.6,30.12,WSW,239,1.0,2.0,88,0.00,,,0.48,206,Wunderground v.1.15,2013-08-19 20:16:00,
2013-08-19 16:22:00,74.2,69.7,30.12,WSW,239,1.0,1.0,86,0.00,,,0.48,178,Wunderground v.1.15,2013-08-19 20:22:00,
2013-08-19 16:28:00,74.4,70.6,30.12,WSW,239,0.0,1.0,88,0.00,,,0.48,155,Wunderground v.1.15,2013-08-19 20:28:00,
2013-08-19 16:34:00,74.2,70.4,30.11,WSW,239,0.0,0.0,88,0.00,,,0.48,162,Wunderground v.1.15,2013-08-19 20:34:00,
2013-08-19 16:41:00,74.4,70.9,30.11,WSW,239,0.0,0.0,89,0.00,,,0.48,194,Wunderground v.1.15,2013-08-19 20:41:00,
2013-08-19 16:46:00,74.6,71.1,30.10,WSW,239,0.0,1.0,89,0.00,,,0.48,181,Wunderground v.1.15,2013-08-19 20:46:00,
2013-08-19 16:52:00,74.6,71.1,30.10,WSW,239,0.0,0.0,89,0.00,,,0.48,171,Wunderground v.1.15,2013-08-19 20:52:00,
2013-08-19 16:58:00,74.6,71.1,30.10,WSW,239,0.0,2.0,89,0.00,,,0.48,171,Wunderground v.1.15,2013-08-19 20:58:00,
2013-08-19 17:04:00,74.9,72.1,30.09,WSW,239,0.0,0.0,91,0.00,,,0.48,195,Wunderground v.1.15,2013-08-19 21:04:00,
2013-08-19 17:10:00,74.7,71.6,30.09,SW,234,1.0,1.0,90,0.00,,,0.48,171,Wunderground v.1.15,2013-08-19 21:10:00,
2013-08-19 17:16:00,74.7,71.6,30.09,SW,234,1.0,3.0,90,0.00,,,0.48,158,Wunderground v.1.15,2013-08-19 21:16:00,
2013-08-19 17:22:00,74.7,71.9,30.09,SW,234,0.0,0.0,91,0.00,,,0.48,127,Wunderground v.1.15,2013-08-19 21:22:00,
2013-08-19 17:28:00,74.6,70.8,30.09,SW,234,0.0,1.0,88,0.00,,,0.48,107,Wunderground v.1.15,2013-08-19 21:28:00,
2013-08-19 17:34:00,74.4,70.9,30.09,SW,234,0.0,2.0,89,0.00,,,0.48,120,Wunderground v.1.15,2013-08-19 21:34:00,
2013-08-19 17:41:00,74.2,71.1,30.09,SW,234,1.0,1.0,90,0.00,,,0.48,150,Wunderground v.1.15,2013-08-19 21:41:00,
2013-08-19 17:46:00,74.2,71.4,30.10,SW,234,1.0,1.0,91,0.00,,,0.48,118,Wunderground v.1.15,2013-08-19 21:46:00,
2013-08-19 17:52:00,74.4,71.3,30.10,SW,234,0.0,0.0,90,0.00,,,0.48,107,Wunderground v.1.15,2013-08-19 21:52:00,
2013-08-19 17:58:00,74.6,71.1,30.10,SW,234,0.0,0.0,89,0.00,,,0.48,125,Wunderground v.1.15,2013-08-19 21:58:00,
2013-08-19 18:04:00,74.6,71.1,30.10,SW,234,0.0,0.0,89,0.00,,,0.48,148,Wunderground v.1.15,2013-08-19 22:04:00,
2013-08-19 18:10:00,74.6,70.8,30.10,SW,234,0.0,0.0,88,0.00,,,0.48,134,Wunderground v.1.15,2013-08-19 22:10:00,
2013-08-19 18:16:00,74.6,70.5,30.11,SW,234,0.0,0.0,87,0.00,,,0.48,88,Wunderground v.1.15,2013-08-19 22:16:00,
2013-08-19 18:22:00,74.7,71.2,30.11,SW,233,0.0,1.0,89,0.00,,,0.48,106,Wunderground v.1.15,2013-08-19 22:22:00,
2013-08-19 18:28:00,74.7,70.9,30.11,SW,233,0.0,1.0,88,0.00,,,0.48,86,Wunderground v.1.15,2013-08-19 22:28:00,
2013-08-19 18:34:00,74.7,71.2,30.11,SW,233,0.0,0.0,89,0.00,,,0.48,55,Wunderground v.1.15,2013-08-19 22:34:00,
2013-08-19 18:40:00,74.9,71.4,30.11,SW,233,0.0,0.0,89,0.00,,,0.48,48,Wunderground v.1.15,2013-08-19 22:40:00,
2013-08-19 18:46:00,74.7,71.2,30.10,SW,233,0.0,2.0,89,0.00,,,0.48,55,Wunderground v.1.15,2013-08-19 22:46:00,
2013-08-19 18:52:00,74.6,71.1,30.10,SW,216,0.0,0.0,89,0.00,,,0.48,55,Wunderground v.1.15,2013-08-19 22:52:00,
2013-08-19 18:58:00,74.6,71.1,30.10,WSW,258,0.0,0.0,89,0.00,,,0.48,63,Wunderground v.1.15,2013-08-19 22:58:00,
2013-08-19 19:04:00,74.6,71.1,30.10,WSW,258,0.0,2.0,89,0.00,,,0.48,72,Wunderground v.1.15,2013-08-19 23:04:00,
2013-08-19 19:10:00,74.6,71.1,30.10,WSW,258,0.0,0.0,89,0.00,,,0.48,32,Wunderground v.1.15,2013-08-19 23:10:00,
2013-08-19 19:16:00,74.6,71.1,30.10,WSW,258,0.0,2.0,89,0.00,,,0.48,25,Wunderground v.1.15,2013-08-19 23:16:00,
2013-08-19 19:22:00,74.4,71.3,30.10,WSW,246,1.0,2.0,90,0.00,,,0.48,21,Wunderground v.1.15,2013-08-19 23:22:00,
2013-08-19 19:28:00,74.2,70.7,30.10,WSW,246,2.0,2.0,89,0.00,,,0.48,16,Wunderground v.1.15,2013-08-19 23:28:00,
2013-08-19 19:34:00,74.0,70.9,30.10,WSW,246,1.0,1.0,90,0.00,,,0.48,14,Wunderground v.1.15,2013-08-19 23:34:00,
2013-08-19 19:40:00,74.0,70.9,30.10,WSW,246,0.0,0.0,90,0.00,,,0.48,9,Wunderground v.1.15,2013-08-19 23:40:00,
2013-08-19 19:46:00,74.0,71.2,30.10,NW,326,0.0,2.0,91,0.00,,,0.48,7,Wunderground v.1.15,2013-08-19 23:46:00,
2013-08-19 19:52:00,73.9,71.1,30.10,NW,325,0.0,1.0,91,0.00,,,0.48,5,Wunderground v.1.15,2013-08-19 23:52:00,
2013-08-19 19:58:00,73.7,70.9,30.10,NW,325,1.0,2.0,91,0.00,,,0.48,5,Wunderground v.1.15,2013-08-19 23:58:00,
2013-08-19 20:04:00,73.5,70.7,30.10,SSW,208,1.0,2.0,91,0.00,,,0.48,5,Wunderground v.1.15,2013-08-20 00:04:00,
2013-08-19 20:10:00,73.3,70.8,30.10,SSW,208,1.0,2.0,92,0.00,,,0.48,0,Wunderground v.1.15,2013-08-20 00:10:00,
2013-08-19 20:16:00,73.2,70.7,30.10,SSW,208,1.0,2.0,92,0.00,,,0.48,0,Wunderground v.1.15,2013-08-20 00:16:00,
2013-08-19 20:22:00,73.0,70.5,30.10,SSW,208,0.0,0.0,92,0.00,,,0.48,0,Wunderground v.1.15,2013-08-20 00:22:00,
2013-08-19 20:28:00,73.0,70.5,30.10,SSW,208,0.0,0.0,92,0.00,,,0.48,0,Wunderground v.1.15,2013-08-20 00:28:00,
2013-08-19 20:34:00,72.8,70.7,30.10,SSW,208,0.0,0.0,93,0.00,,,0.48,0,Wunderground v.1.15,2013-08-20 00:34:00,
2013-08-19 20:40:00,72.8,70.7,30.10,SSW,208,0.0,0.0,93,0.00,,,0.48,0,Wunderground v.1.15,2013-08-20 00:40:00,
2013-08-19 20:46:00,72.8,70.7,30.11,SSW,208,0.0,0.0,93,0.00,,,0.48,0,Wunderground v.1.15,2013-08-20 00:46:00,
2013-08-19 20:52:00,72.7,70.6,30.11,SSW,208,0.0,0.0,93,0.00,,,0.48,0,Wunderground v.1.15,2013-08-20 00:52:00,
2013-08-19 20:58:00,72.7,70.6,30.11,SSW,208,0.0,0.0,93,0.00,,,0.48,0,Wunderground v.1.15,2013-08-20 00:58:00,
2013-08-19 21:04:00,72.5,70.7,30.11,SSW,208,0.0,0.0,94,0.00,,,0.48,0,Wunderground v.1.15,2013-08-20 01:04:00,
2013-08-19 21:10:00,72.5,70.7,30.11,SSW,208,0.0,0.0,94,0.00,,,0.48,0,Wunderground v.1.15,2013-08-20 01:10:00,
2013-08-19 21:16:00,72.5,70.7,30.12,SSW,208,0.0,0.0,94,0.00,,,0.48,0,Wunderground v.1.15,2013-08-20 01:16:00,
2013-08-19 21:22:00,72.3,70.5,30.12,SSW,208,0.0,0.0,94,0.00,,,0.48,0,Wunderground v.1.15,2013-08-20 01:22:00,
2013-08-19 21:28:00,72.3,70.5,30.12,SSW,208,0.0,0.0,94,0.00,,,0.48,0,Wunderground v.1.15,2013-08-20 01:28:00,
2013-08-19 21:34:00,72.3,70.5,30.12,SSW,208,0.0,0.0,94,0.00,,,0.48,0,Wunderground v.1.15,2013-08-20 01:34:00,
2013-08-19 21:40:00,72.3,70.5,30.12,SSW,208,0.0,0.0,94,0.00,,,0.48,0,Wunderground v.1.15,2013-08-20 01:40:00,
2013-08-19 21:46:00,72.3,70.8,30.12,SSW,208,0.0,0.0,95,0.00,,,0.48,0,Wunderground v.1.15,2013-08-20 01:46:00,
2013-08-19 21:52:00,72.1,70.6,30.12,SSW,208,0.0,0.0,95,0.00,,,0.48,0,Wunderground v.1.15,2013-08-20 01:52:00,
2013-08-19 21:58:00,72.1,70.6,30.12,SSW,208,0.0,0.0,95,0.00,,,0.48,0,Wunderground v.1.15,2013-08-20 01:58:00,
2013-08-19 22:04:00,72.1,70.6,30.12,SSW,208,0.0,0.0,95,0.00,,,0.48,0,Wunderground v.1.15,2013-08-20 02:04:00,
2013-08-19 22:10:00,72.0,70.5,30.12,SSW,208,0.0,0.0,95,0.00,,,0.48,0,Wunderground v.1.15,2013-08-20 02:10:00,
2013-08-19 22:16:00,71.8,70.3,30.12,SSW,208,0.0,0.0,95,0.00,,,0.48,0,Wunderground v.1.15,2013-08-20 02:16:00,
2013-08-19 22:22:00,71.8,70.3,30.12,SSW,208,0.0,0.0,95,0.00,,,0.48,0,Wunderground v.1.15,2013-08-20 02:22:00,
2013-08-19 22:28:00,71.6,70.1,30.12,SSW,208,0.0,0.0,95,0.00,,,0.48,0,Wunderground v.1.15,2013-08-20 02:28:00,
2013-08-19 22:34:00,71.5,70.0,30.12,SSW,208,0.0,0.0,95,0.00,,,0.48,0,Wunderground v.1.15,2013-08-20 02:34:00,
2013-08-19 22:40:00,71.5,70.0,30.12,SSW,208,0.0,0.0,95,0.00,,,0.48,0,Wunderground v.1.15,2013-08-20 02:40:00,
2013-08-19 22:46:00,71.5,70.0,30.12,SSW,208,0.0,0.0,95,0.00,,,0.48,0,Wunderground v.1.15,2013-08-20 02:46:00,
2013-08-19 22:52:00,71.5,70.0,30.12,SSW,208,0.0,0.0,95,0.00,,,0.48,0,Wunderground v.1.15,2013-08-20 02:52:00,
2013-08-19 22:58:00,71.5,70.0,30.12,SSW,208,0.0,0.0,95,0.00,,,0.48,0,Wunderground v.1.15,2013-08-20 02:58:00,
2013-08-19 23:04:00,71.5,70.0,30.12,SSW,208,0.0,0.0,95,0.00,,,0.48,0,Wunderground v.1.15,2013-08-20 03:04:00,
2013-08-19 23:10:00,71.5,70.3,30.12,SSW,208,0.0,0.0,96,0.00,,,0.48,0,Wunderground v.1.15,2013-08-20 03:10:00,
2013-08-19 23:16:00,71.3,70.1,30.12,SSW,208,0.0,0.0,96,0.00,,,0.48,0,Wunderground v.1.15,2013-08-20 03:16:00,
2013-08-19 23:22:00,71.3,70.1,30.12,SSW,208,0.0,0.0,96,0.00,,,0.48,0,Wunderground v.1.15,2013-08-20 03:22:00,
2013-08-19 23:28:00,71.3,70.1,30.12,SSW,208,0.0,0.0,96,0.00,,,0.48,0,Wunderground v.1.15,2013-08-20 03:28:00,
2013-08-19 23:34:00,71.3,70.4,30.13,SSW,208,0.0,0.0,97,0.00,,,0.48,0,Wunderground v.1.15,2013-08-20 03:34:00,
2013-08-19 23:40:00,71.3,70.4,30.13,SSW,208,0.0,0.0,97,0.00,,,0.48,0,Wunderground v.1.15,2013-08-20 03:40:00,
2013-08-19 23:46:00,71.1,70.2,30.13,SSW,208,0.0,0.0,97,0.00,,,0.48,0,Wunderground v.1.15,2013-08-20 03:46:00,
2013-08-19 23:52:00,71.1,70.2,30.13,SSW,208,0.0,0.0,97,0.00,,,0.48,0,Wunderground v.1.15,2013-08-20 03:52:00,
2013-08-19 23:58:00,71.1,70.2,30.13,SSW,208,0.0,0.0,97,0.00,,,0.48,0,Wunderground v.1.15,2013-08-20 03:58:00,